Time;durP1;ratioP1;P1;durP2;ratioP2;P2;SDS_P1;SDS_P2;PMS_P1;PMS_P2;Temp;Humidity;BMP_temperature;BMP_pressure;BME280_temperature;BME280_humidity;BME280_pressure;Samples;Min_cycle;Max_cycle;Signal;HPM_P1;HPM_P2
2024/02/12 00:00:19;;;;;;;6.03;3.77;;;;;;;;;;704877;27;1027;-65
2024/02/12 00:00:43;;;;;;;7.32;3.72;;;;;;;;;;704424;27;1412;-65
2024/02/12 00:01:03;;;;;;;7.80;3.97;;;;;;;;;;703522;27;1681;-66
2024/02/12 00:01:28;;;;;;;6.77;3.80;;;;;;;;;;704786;27;4305;-66
2024/02/12 00:01:49;;;;;;;9.90;4.05;;;;;;;;;;703644;28;750;-66
2024/02/12 00:02:11;;;;;;;8.80;3.80;;;;;;;;;;702063;28;993;-66
2024/02/12 00:02:31;;;;;;;6.15;3.60;;;;;;;;;;699317;28;1204;-66
2024/02/12 00:02:52;;;;;;;5.78;3.63;;;;;;;;;;697237;28;981;-66
2024/02/12 00:03:17;;;;;;;5.47;3.50;;;;;;;;;;696659;28;873;-66
2024/02/12 00:03:38;;;;;;;6.65;3.60;;;;;;;;;;697619;28;1038;-66
2024/02/12 00:03:59;;;;;;;6.40;3.78;;;;;;;;;;698544;28;1568;-66
2024/02/12 00:04:20;;;;;;;7.17;4.10;;;;;;;;;;695579;28;1410;-66
2024/02/12 00:04:40;;;;;;;7.63;3.60;;;;;;;;;;692139;28;4298;-66
2024/02/12 00:05:05;;;;;;;5.50;3.10;;;;;;;;;;693592;28;935;-66
2024/02/12 00:05:26;;;;;;;5.68;3.25;;;;;;;;;;694638;28;1917;-67
2024/02/12 00:05:46;;;;;;;6.25;3.20;;;;;;;;;;695788;28;1314;-66
2024/02/12 00:06:07;;;;;;;5.47;3.37;;;;;;;;;;694691;28;2032;-66
2024/02/12 00:06:29;;;;;;;6.13;3.33;;;;;;;;;;701002;27;921;-67
2024/02/12 00:06:49;;;;;;;6.13;3.10;;;;;;;;;;704468;27;998;-66
2024/02/12 00:07:09;;;;;;;6.13;3.40;;;;;;;;;;701726;28;1002;-66
2024/02/12 00:07:32;;;;;;;6.57;3.50;;;;;;;;;;703231;28;4654;-66
2024/02/12 00:07:52;;;;;;;5.72;3.35;;;;;;;;;;704196;27;1552;-67
2024/02/12 00:08:15;;;;;;;6.43;3.72;;;;;;;;;;705271;27;884;-66
2024/02/12 00:08:35;;;;;;;6.60;3.78;;;;;;;;;;704409;28;967;-67
2024/02/12 00:08:55;;;;;;;6.23;3.20;;;;;;;;;;701652;27;3686;-67
2024/02/12 00:09:16;;;;;;;7.20;3.50;;;;;;;;;;704143;28;4572;-67
2024/02/12 00:09:36;;;;;;;4.77;3.13;;;;;;;;;;704973;28;955;-67
2024/02/12 00:09:56;;;;;;;6.73;3.37;;;;;;;;;;704104;27;1473;-67
2024/02/12 00:10:16;;;;;;;10.07;3.50;;;;;;;;;;703797;27;939;-66
2024/02/12 00:10:40;;;;;;;7.88;3.50;;;;;;;;;;703705;27;4502;-66
2024/02/12 00:11:00;;;;;;;5.70;3.22;;;;;;;;;;702675;27;1740;-66
2024/02/12 00:11:20;;;;;;;5.78;2.95;;;;;;;;;;704777;27;924;-67
2024/02/12 00:11:45;;;;;;;5.23;2.97;;;;;;;;;;705646;27;998;-66
2024/02/12 00:12:06;;;;;;;5.75;3.10;;;;;;;;;;699594;28;1225;-66
2024/02/12 00:12:27;;;;;;;6.70;3.00;;;;;;;;;;701488;28;1137;-67
2024/02/12 00:12:49;;;;;;;5.78;3.08;;;;;;;;;;702664;28;896;-67
2024/02/12 00:13:10;;;;;;;5.32;3.22;;;;;;;;;;700229;28;1682;-67
2024/02/12 00:13:30;;;;;;;6.85;3.35;;;;;;;;;;701275;28;4388;-67
2024/02/12 00:13:50;;;;;;;6.83;3.03;;;;;;;;;;697519;28;1736;-67
2024/02/12 00:14:11;;;;;;;5.10;2.80;;;;;;;;;;702090;28;809;-67
2024/02/12 00:14:31;;;;;;;5.18;2.80;;;;;;;;;;703722;28;840;-66
2024/02/12 00:14:51;;;;;;;5.30;2.90;;;;;;;;;;700595;28;1477;-67
2024/02/12 00:15:12;;;;;;;5.73;2.90;;;;;;;;;;698277;28;1189;-66
2024/02/12 00:15:32;;;;;;;6.60;3.10;;;;;;;;;;696077;28;1326;-67
2024/02/12 00:15:53;;;;;;;7.37;3.20;;;;;;;;;;696750;28;902;-66
2024/02/12 00:16:13;;;;;;;6.95;2.97;;;;;;;;;;698387;28;963;-66
2024/02/12 00:16:34;;;;;;;8.10;3.30;;;;;;;;;;697842;28;4444;-67
2024/02/12 00:16:54;;;;;;;6.45;3.10;;;;;;;;;;697112;28;1486;-67
2024/02/12 00:17:15;;;;;;;5.97;2.95;;;;;;;;;;698137;28;1256;-67
2024/02/12 00:17:36;;;;;;;11.75;3.53;;;;;;;;;;700669;28;829;-67
2024/02/12 00:17:59;;;;;;;12.27;3.43;;;;;;;;;;694753;28;1562;-67
2024/02/12 00:18:23;;;;;;;6.47;3.47;;;;;;;;;;693109;28;884;-67
2024/02/12 00:18:46;;;;;;;6.63;3.40;;;;;;;;;;692655;28;1254;-67
2024/02/12 00:19:09;;;;;;;6.65;3.05;;;;;;;;;;692602;28;1848;-66
2024/02/12 00:19:29;;;;;;;5.15;3.10;;;;;;;;;;695030;28;4258;-66
2024/02/12 00:19:50;;;;;;;5.80;3.20;;;;;;;;;;695098;28;829;-67
2024/02/12 00:20:14;;;;;;;7.10;3.60;;;;;;;;;;692401;28;1400;-67
2024/02/12 00:20:34;;;;;;;5.47;3.05;;;;;;;;;;695285;28;1111;-67
2024/02/12 00:20:54;;;;;;;5.93;3.10;;;;;;;;;;693903;28;1989;-67
2024/02/12 00:21:15;;;;;;;6.70;3.60;;;;;;;;;;696784;28;817;-67
2024/02/12 00:21:36;;;;;;;6.60;3.38;;;;;;;;;;695335;28;1270;-67
2024/02/12 00:21:58;;;;;;;5.75;3.15;;;;;;;;;;694293;28;2442;-67
2024/02/12 00:22:20;;;;;;;5.75;3.50;;;;;;;;;;698660;28;958;-66
2024/02/12 00:22:40;;;;;;;5.75;3.30;;;;;;;;;;699258;28;4200;-67
2024/02/12 00:23:01;;;;;;;6.07;3.13;;;;;;;;;;699134;28;1652;-66
2024/02/12 00:23:21;;;;;;;6.75;3.15;;;;;;;;;;700304;28;1316;-67
2024/02/12 00:23:43;;;;;;;6.72;3.08;;;;;;;;;;697121;28;1165;-66
2024/02/12 00:24:04;;;;;;;6.72;3.10;;;;;;;;;;696569;28;1018;-67
2024/02/12 00:24:28;;;;;;;6.67;3.10;;;;;;;;;;696788;28;852;-66
2024/02/12 00:24:48;;;;;;;6.38;3.17;;;;;;;;;;699653;28;932;-67
2024/02/12 00:25:11;;;;;;;6.20;3.00;;;;;;;;;;699406;28;2260;-66
2024/02/12 00:25:33;;;;;;;5.82;3.30;;;;;;;;;;698997;28;4286;-66
2024/02/12 00:25:53;;;;;;;7.82;3.60;;;;;;;;;;699016;28;1769;-66
2024/02/12 00:26:14;;;;;;;6.93;3.20;;;;;;;;;;702052;28;924;-67
2024/02/12 00:26:34;;;;;;;5.23;3.00;;;;;;;;;;701305;28;917;-66
2024/02/12 00:27:00;;;;;;;6.47;3.35;;;;;;;;;;698183;28;1672;-67
2024/02/12 00:27:20;;;;;;;6.88;3.40;;;;;;;;;;700108;28;1077;-67
2024/02/12 00:27:42;;;;;;;6.05;3.08;;;;;;;;;;698904;28;1172;-67
2024/02/12 00:28:03;;;;;;;5.90;3.20;;;;;;;;;;697676;28;997;-66
2024/02/12 00:28:23;;;;;;;5.65;3.05;;;;;;;;;;697876;28;4379;-67
2024/02/12 00:28:47;;;;;;;5.77;3.57;;;;;;;;;;697990;28;1330;-66
2024/02/12 00:29:14;;;;;;;6.35;3.20;;;;;;;;;;697330;28;1898;-66
2024/02/12 00:29:34;;;;;;;6.53;3.13;;;;;;;;;;702273;27;929;-66
2024/02/12 00:29:54;;;;;;;6.33;3.00;;;;;;;;;;701041;28;1844;-67
2024/02/12 00:30:15;;;;;;;6.27;3.10;;;;;;;;;;701839;28;1304;-66
2024/02/12 00:30:35;;;;;;;6.80;3.40;;;;;;;;;;700854;28;848;-67
2024/02/12 00:30:58;;;;;;;6.63;3.30;;;;;;;;;;701163;28;2272;-67
2024/02/12 00:31:20;;;;;;;6.50;3.33;;;;;;;;;;701804;28;995;-67
2024/02/12 00:31:42;;;;;;;7.95;3.47;;;;;;;;;;701761;28;4419;-66
2024/02/12 00:32:03;;;;;;;7.95;3.30;;;;;;;;;;699000;28;1624;-67
2024/02/12 00:32:23;;;;;;;5.55;3.15;;;;;;;;;;701719;28;1074;-66
2024/02/12 00:32:44;;;;;;;6.57;3.13;;;;;;;;;;701722;28;1389;-66
2024/02/12 00:33:06;;;;;;;7.28;3.08;;;;;;;;;;697241;28;2274;-66
2024/02/12 00:33:28;;;;;;;8.13;3.20;;;;;;;;;;697744;28;1231;-66
2024/02/12 00:33:48;;;;;;;8.35;3.25;;;;;;;;;;696597;28;928;-67
2024/02/12 00:34:09;;;;;;;7.23;3.20;;;;;;;;;;696796;28;1837;-66
2024/02/12 00:34:33;;;;;;;7.57;3.22;;;;;;;;;;696830;28;4394;-67
2024/02/12 00:34:57;;;;;;;7.43;3.20;;;;;;;;;;698495;28;1801;-67
2024/02/12 00:35:17;;;;;;;7.30;3.22;;;;;;;;;;698670;28;1952;-67
2024/02/12 00:35:41;;;;;;;5.90;3.20;;;;;;;;;;699364;28;928;-66
2024/02/12 00:36:02;;;;;;;6.05;3.20;;;;;;;;;;700783;28;1735;-67
2024/02/12 00:36:23;;;;;;;6.78;3.28;;;;;;;;;;703127;28;904;-66
2024/02/12 00:36:45;;;;;;;6.85;3.30;;;;;;;;;;700970;28;908;-67
2024/02/12 00:37:05;;;;;;;7.60;3.15;;;;;;;;;;700563;28;1450;-67
2024/02/12 00:37:26;;;;;;;8.07;3.23;;;;;;;;;;703178;28;4468;-66
2024/02/12 00:37:46;;;;;;;7.83;3.10;;;;;;;;;;704483;27;868;-66
2024/02/12 00:38:07;;;;;;;6.07;3.15;;;;;;;;;;700347;28;1863;-66
2024/02/12 00:38:27;;;;;;;6.90;3.15;;;;;;;;;;702407;28;949;-67
2024/02/12 00:38:48;;;;;;;6.20;3.20;;;;;;;;;;702035;28;1287;-66
2024/02/12 00:39:09;;;;;;;6.60;3.23;;;;;;;;;;700437;28;1733;-67
2024/02/12 00:39:30;;;;;;;6.75;3.22;;;;;;;;;;701019;28;1235;-66
2024/02/12 00:39:54;;;;;;;7.20;3.00;;;;;;;;;;701289;28;1130;-67
2024/02/12 00:40:14;;;;;;;8.45;3.20;;;;;;;;;;704226;27;948;-67
2024/02/12 00:40:34;;;;;;;7.13;3.13;;;;;;;;;;704857;27;4213;-67
2024/02/12 00:40:56;;;;;;;6.30;3.10;;;;;;;;;;702728;28;2213;-66
2024/02/12 00:41:20;;;;;;;6.18;3.20;;;;;;;;;;701582;28;1313;-66
2024/02/12 00:41:40;;;;;;;6.13;3.28;;;;;;;;;;701188;28;1242;-66
2024/02/12 00:42:03;;;;;;;6.53;3.30;;;;;;;;;;699714;28;1727;-67
2024/02/12 00:42:24;;;;;;;5.47;3.30;;;;;;;;;;700931;28;1027;-67
2024/02/12 00:42:45;;;;;;;5.40;3.23;;;;;;;;;;698650;28;1128;-67
2024/02/12 00:43:05;;;;;;;5.73;3.03;;;;;;;;;;698767;28;1464;-67
2024/02/12 00:43:26;;;;;;;6.40;3.00;;;;;;;;;;700001;28;4351;-67
2024/02/12 00:43:47;;;;;;;6.13;2.92;;;;;;;;;;703057;28;955;-67
2024/02/12 00:44:07;;;;;;;6.17;2.90;;;;;;;;;;700367;28;1605;-67
2024/02/12 00:44:27;;;;;;;7.10;3.10;;;;;;;;;;700635;28;1099;-67
2024/02/12 00:44:48;;;;;;;5.93;3.00;;;;;;;;;;705618;27;781;-67
2024/02/12 00:45:09;;;;;;;7.22;3.22;;;;;;;;;;704421;27;1161;-67
2024/02/12 00:45:31;;;;;;;6.82;3.50;;;;;;;;;;706030;27;1918;-66
2024/02/12 00:45:51;;;;;;;6.45;3.30;;;;;;;;;;704415;27;919;-66
2024/02/12 00:46:12;;;;;;;6.60;3.40;;;;;;;;;;702928;28;1720;-66
2024/02/12 00:46:32;;;;;;;6.17;3.10;;;;;;;;;;705168;28;4379;-67
2024/02/12 00:46:54;;;;;;;7.27;3.43;;;;;;;;;;703874;28;1485;-66
2024/02/12 00:47:14;;;;;;;9.13;3.45;;;;;;;;;;704648;27;845;-66
2024/02/12 00:47:36;;;;;;;6.87;2.97;;;;;;;;;;704752;28;1080;-67
2024/02/12 00:47:56;;;;;;;6.63;3.20;;;;;;;;;;699799;28;1351;-67
2024/02/12 00:48:18;;;;;;;12.10;3.97;;;;;;;;;;702795;28;777;-67
2024/02/12 00:48:38;;;;;;;7.68;3.22;;;;;;;;;;701655;28;919;-67
2024/02/12 00:48:59;;;;;;;6.47;3.17;;;;;;;;;;699755;28;1702;-67
2024/02/12 00:49:19;;;;;;;6.03;3.43;;;;;;;;;;698807;28;1387;-67
2024/02/12 00:49:40;;;;;;;6.57;3.60;;;;;;;;;;698957;28;4346;-67
2024/02/12 00:50:02;;;;;;;6.18;3.40;;;;;;;;;;696483;28;2219;-66
2024/02/12 00:50:22;;;;;;;5.95;3.40;;;;;;;;;;699699;28;928;-66
2024/02/12 00:50:43;;;;;;;6.43;3.50;;;;;;;;;;702386;28;801;-67
2024/02/12 00:51:05;;;;;;;6.47;3.40;;;;;;;;;;700029;28;1470;-66
2024/02/12 00:51:26;;;;;;;7.18;3.40;;;;;;;;;;701540;28;1135;-66
2024/02/12 00:51:46;;;;;;;7.40;3.40;;;;;;;;;;701784;28;1280;-67
2024/02/12 00:52:07;;;;;;;6.43;3.07;;;;;;;;;;696587;28;1481;-67
2024/02/12 00:52:28;;;;;;;6.25;3.03;;;;;;;;;;698242;28;4240;-66
2024/02/12 00:52:49;;;;;;;6.35;3.50;;;;;;;;;;699297;28;805;-66
2024/02/12 00:53:10;;;;;;;7.75;3.60;;;;;;;;;;694692;28;1553;-67
2024/02/12 00:53:30;;;;;;;6.70;3.75;;;;;;;;;;698863;28;1481;-67
2024/02/12 00:53:51;;;;;;;5.93;3.37;;;;;;;;;;699656;28;967;-66
2024/02/12 00:54:14;;;;;;;6.97;3.55;;;;;;;;;;699812;28;1803;-67
2024/02/12 00:54:39;;;;;;;6.57;3.40;;;;;;;;;;698022;28;1006;-67
2024/02/12 00:55:00;;;;;;;7.78;3.50;;;;;;;;;;697753;28;1425;-67
2024/02/12 00:55:20;;;;;;;6.93;3.42;;;;;;;;;;701573;28;1314;-66
2024/02/12 00:55:40;;;;;;;7.97;3.60;;;;;;;;;;700367;28;4339;-66
2024/02/12 00:56:02;;;;;;;10.05;3.25;;;;;;;;;;698735;28;1647;-66
2024/02/12 00:56:24;;;;;;;7.30;3.50;;;;;;;;;;703229;28;971;-67
2024/02/12 00:56:44;;;;;;;6.10;3.55;;;;;;;;;;701256;28;836;-67
2024/02/12 00:57:04;;;;;;;6.37;3.40;;;;;;;;;;700101;28;1716;-66
2024/02/12 00:57:25;;;;;;;6.47;3.43;;;;;;;;;;701291;28;1201;-66
2024/02/12 00:57:46;;;;;;;7.22;3.50;;;;;;;;;;702013;28;1157;-67
2024/02/12 00:58:06;;;;;;;6.73;3.60;;;;;;;;;;698130;28;1743;-66
2024/02/12 00:58:27;;;;;;;7.07;3.88;;;;;;;;;;701080;28;4543;-67
2024/02/12 00:58:48;;;;;;;6.20;3.60;;;;;;;;;;705399;28;1333;-66
2024/02/12 00:59:09;;;;;;;6.38;3.63;;;;;;;;;;704067;28;1823;-67
2024/02/12 00:59:29;;;;;;;7.82;3.88;;;;;;;;;;699566;28;871;-67
2024/02/12 00:59:50;;;;;;;8.77;3.97;;;;;;;;;;701444;28;880;-67
2024/02/12 01:00:14;;;;;;;7.60;3.60;;;;;;;;;;701245;28;2003;-67
2024/02/12 01:00:34;;;;;;;8.38;3.90;;;;;;;;;;701574;28;868;-67
2024/02/12 01:00:54;;;;;;;7.27;3.70;;;;;;;;;;700526;28;1935;-66
2024/02/12 01:01:15;;;;;;;6.63;3.67;;;;;;;;;;697190;28;861;-66
2024/02/12 01:01:35;;;;;;;5.80;3.23;;;;;;;;;;699223;28;4223;-67
2024/02/12 01:01:56;;;;;;;5.78;3.33;;;;;;;;;;694671;28;1737;-67
2024/02/12 01:02:17;;;;;;;7.10;3.53;;;;;;;;;;696788;28;1321;-66
2024/02/12 01:02:40;;;;;;;7.82;3.80;;;;;;;;;;694840;28;968;-67
2024/02/12 01:03:00;;;;;;;7.25;3.80;;;;;;;;;;695097;28;1693;-67
2024/02/12 01:03:22;;;;;;;8.27;3.70;;;;;;;;;;698942;28;972;-67
2024/02/12 01:03:42;;;;;;;7.05;3.80;;;;;;;;;;697441;28;982;-67
2024/02/12 01:04:03;;;;;;;11.07;4.10;;;;;;;;;;697443;28;1736;-66
2024/02/12 01:04:23;;;;;;;9.37;3.73;;;;;;;;;;698575;28;4385;-66
2024/02/12 01:04:43;;;;;;;8.07;3.80;;;;;;;;;;698181;28;1003;-67
2024/02/12 01:05:04;;;;;;;7.63;3.87;;;;;;;;;;697493;28;1694;-67
2024/02/12 01:05:24;;;;;;;7.77;3.73;;;;;;;;;;698156;28;3577;-66
2024/02/12 01:05:44;;;;;;;8.20;4.10;;;;;;;;;;698364;28;4548;-67
2024/02/12 01:06:05;;;;;;;8.30;4.20;;;;;;;;;;699024;28;1682;-66
2024/02/12 01:06:25;;;;;;;7.37;3.70;;;;;;;;;;701302;28;1193;-66
2024/02/12 01:06:46;;;;;;;7.50;3.83;;;;;;;;;;701561;28;877;-66
2024/02/12 01:07:06;;;;;;;7.60;3.80;;;;;;;;;;699232;28;1513;-66
2024/02/12 01:07:27;;;;;;;6.63;3.83;;;;;;;;;;702660;28;4462;-68
2024/02/12 01:07:49;;;;;;;6.75;4.00;;;;;;;;;;700626;28;1105;-68
2024/02/12 01:08:10;;;;;;;7.38;3.88;;;;;;;;;;697344;28;1429;-68
2024/02/12 01:08:30;;;;;;;7.60;4.10;;;;;;;;;;700554;28;1155;-66
2024/02/12 01:08:50;;;;;;;7.63;4.13;;;;;;;;;;698997;28;1266;-66
2024/02/12 01:09:14;;;;;;;7.60;4.20;;;;;;;;;;697998;28;1864;-67
2024/02/12 01:09:34;;;;;;;6.68;4.15;;;;;;;;;;697425;28;877;-67
2024/02/12 01:09:55;;;;;;;7.60;4.32;;;;;;;;;;697481;28;2017;-68
2024/02/12 01:10:16;;;;;;;7.47;4.27;;;;;;;;;;697503;28;1257;-68
2024/02/12 01:10:36;;;;;;;6.72;3.90;;;;;;;;;;697553;28;4426;-67
2024/02/12 01:10:56;;;;;;;7.85;3.85;;;;;;;;;;701119;28;968;-67
2024/02/12 01:11:17;;;;;;;8.23;4.03;;;;;;;;;;700741;28;931;-68
2024/02/12 01:11:38;;;;;;;8.07;4.17;;;;;;;;;;699016;28;1135;-66
2024/02/12 01:11:59;;;;;;;7.68;3.92;;;;;;;;;;697347;28;1610;-66
2024/02/12 01:12:19;;;;;;;7.53;4.07;;;;;;;;;;698354;28;1034;-67
2024/02/12 01:12:42;;;;;;;7.90;4.23;;;;;;;;;;694390;28;1457;-67
2024/02/12 01:13:02;;;;;;;8.27;4.00;;;;;;;;;;695006;28;1464;-68
2024/02/12 01:13:22;;;;;;;7.93;4.17;;;;;;;;;;696014;28;4660;-67
2024/02/12 01:13:44;;;;;;;7.57;4.23;;;;;;;;;;699948;28;868;-68
2024/02/12 01:14:04;;;;;;;7.97;4.30;;;;;;;;;;698714;28;1695;-67
2024/02/12 01:14:25;;;;;;;6.80;4.00;;;;;;;;;;699753;28;1116;-66
2024/02/12 01:14:46;;;;;;;8.27;4.47;;;;;;;;;;701195;28;868;-67
2024/02/12 01:15:09;;;;;;;7.57;4.53;;;;;;;;;;699179;28;1721;-67
2024/02/12 01:15:30;;;;;;;8.27;4.72;;;;;;;;;;702265;28;1253;-67
2024/02/12 01:15:51;;;;;;;7.57;4.55;;;;;;;;;;701769;28;1003;-67
2024/02/12 01:16:11;;;;;;;8.37;4.30;;;;;;;;;;698422;28;1944;-66
2024/02/12 01:16:32;;;;;;;9.17;4.37;;;;;;;;;;697266;28;4645;-68
2024/02/12 01:16:53;;;;;;;8.38;4.43;;;;;;;;;;699116;28;1091;-67
2024/02/12 01:17:15;;;;;;;7.97;4.30;;;;;;;;;;698766;28;968;-67
2024/02/12 01:17:35;;;;;;;7.55;4.15;;;;;;;;;;699653;28;1046;-67
2024/02/12 01:17:57;;;;;;;8.40;4.40;;;;;;;;;;697666;28;1776;-68
2024/02/12 01:18:17;;;;;;;8.52;4.28;;;;;;;;;;702925;28;1308;-68
2024/02/12 01:18:39;;;;;;;7.87;4.23;;;;;;;;;;704801;28;1091;-68
2024/02/12 01:19:00;;;;;;;7.95;4.22;;;;;;;;;;701640;28;1602;-67
2024/02/12 01:19:20;;;;;;;8.20;4.18;;;;;;;;;;700986;28;1275;-67
2024/02/12 01:19:41;;;;;;;6.60;4.00;;;;;;;;;;702823;28;4352;-68
2024/02/12 01:20:01;;;;;;;6.80;3.80;;;;;;;;;;700663;28;1930;-69
2024/02/12 01:20:22;;;;;;;7.07;3.93;;;;;;;;;;700238;28;849;-66
2024/02/12 01:20:44;;;;;;;8.20;4.22;;;;;;;;;;700502;28;1041;-67
2024/02/12 01:21:05;;;;;;;7.88;4.13;;;;;;;;;;697307;28;2085;-67
2024/02/12 01:21:26;;;;;;;7.37;3.97;;;;;;;;;;698877;28;975;-67
2024/02/12 01:21:46;;;;;;;7.65;3.97;;;;;;;;;;699645;28;978;-67
2024/02/12 01:22:08;;;;;;;6.78;3.83;;;;;;;;;;696380;28;1627;-67
2024/02/12 01:22:29;;;;;;;7.50;4.05;;;;;;;;;;699892;28;4449;-67
2024/02/12 01:22:49;;;;;;;7.73;3.83;;;;;;;;;;702262;28;1061;-68
2024/02/12 01:23:10;;;;;;;7.32;3.90;;;;;;;;;;701163;28;1828;-67
2024/02/12 01:23:32;;;;;;;6.82;4.40;;;;;;;;;;699162;28;1564;-67
2024/02/12 01:23:53;;;;;;;6.43;4.10;;;;;;;;;;700022;28;771;-67
2024/02/12 01:24:14;;;;;;;6.57;3.97;;;;;;;;;;695392;28;1914;-67
2024/02/12 01:24:35;;;;;;;6.97;4.22;;;;;;;;;;699943;28;928;-67
2024/02/12 01:24:58;;;;;;;7.90;3.97;;;;;;;;;;697932;28;1905;-67
2024/02/12 01:25:18;;;;;;;6.57;3.85;;;;;;;;;;702169;28;1959;-68
2024/02/12 01:25:42;;;;;;;6.80;3.70;;;;;;;;;;700179;28;4200;-67
2024/02/12 01:26:03;;;;;;;6.47;4.00;;;;;;;;;;698466;28;1956;-66
2024/02/12 01:26:25;;;;;;;6.85;3.83;;;;;;;;;;700850;28;781;-67
2024/02/12 01:26:46;;;;;;;6.07;3.60;;;;;;;;;;700745;28;1046;-68
2024/02/12 01:27:07;;;;;;;6.57;3.95;;;;;;;;;;697388;28;2081;-67
2024/02/12 01:27:27;;;;;;;6.93;4.15;;;;;;;;;;700295;28;1311;-68
2024/02/12 01:27:51;;;;;;;7.93;3.90;;;;;;;;;;697911;28;906;-67
2024/02/12 01:28:11;;;;;;;7.80;3.90;;;;;;;;;;700762;28;1679;-68
2024/02/12 01:28:31;;;;;;;7.23;3.93;;;;;;;;;;696227;28;4548;-67
2024/02/12 01:28:52;;;;;;;7.10;3.97;;;;;;;;;;698013;28;777;-67
2024/02/12 01:29:14;;;;;;;7.23;4.00;;;;;;;;;;696674;28;1750;-68
2024/02/12 01:29:37;;;;;;;7.55;3.80;;;;;;;;;;699064;28;865;-68
2024/02/12 01:29:58;;;;;;;7.13;3.92;;;;;;;;;;699871;28;1504;-68
2024/02/12 01:30:18;;;;;;;5.70;3.60;;;;;;;;;;701034;28;1002;-68
2024/02/12 01:30:39;;;;;;;6.95;3.67;;;;;;;;;;702441;28;896;-67
2024/02/12 01:30:59;;;;;;;6.65;3.58;;;;;;;;;;697479;28;1502;-68
2024/02/12 01:31:20;;;;;;;7.03;3.93;;;;;;;;;;700852;28;916;-68
2024/02/12 01:31:40;;;;;;;7.70;3.90;;;;;;;;;;698503;28;4352;-67
2024/02/12 01:32:00;;;;;;;7.63;3.80;;;;;;;;;;695934;28;1669;-68
2024/02/12 01:32:20;;;;;;;6.73;3.67;;;;;;;;;;698331;28;845;-68
2024/02/12 01:32:41;;;;;;;7.20;3.80;;;;;;;;;;698130;28;1282;-68
2024/02/12 01:33:01;;;;;;;5.93;3.40;;;;;;;;;;695547;28;2189;-68
2024/02/12 01:33:22;;;;;;;7.80;3.73;;;;;;;;;;698645;28;979;-67
2024/02/12 01:33:42;;;;;;;7.25;3.72;;;;;;;;;;702248;28;904;-68
2024/02/12 01:34:04;;;;;;;7.30;3.90;;;;;;;;;;700136;28;1783;-67
2024/02/12 01:34:27;;;;;;;7.38;4.00;;;;;;;;;;697576;28;4488;-67
2024/02/12 01:34:47;;;;;;;6.78;3.70;;;;;;;;;;699862;28;890;-68
2024/02/12 01:35:07;;;;;;;6.27;3.57;;;;;;;;;;693678;28;1673;-67
2024/02/12 01:35:28;;;;;;;5.82;3.53;;;;;;;;;;694638;28;790;-67
2024/02/12 01:35:48;;;;;;;8.53;3.97;;;;;;;;;;694424;28;1247;-68
2024/02/12 01:36:09;;;;;;;7.63;3.70;;;;;;;;;;695378;28;1756;-66
2024/02/12 01:36:29;;;;;;;6.60;3.60;;;;;;;;;;699166;28;1267;-67
2024/02/12 01:36:52;;;;;;;8.23;3.83;;;;;;;;;;700413;28;908;-67
2024/02/12 01:37:13;;;;;;;10.60;3.90;;;;;;;;;;696550;28;2091;-67
2024/02/12 01:37:33;;;;;;;10.20;4.50;;;;;;;;;;699036;28;4250;-68
2024/02/12 01:37:53;;;;;;;9.65;4.70;;;;;;;;;;702231;28;1011;-68
2024/02/12 01:38:14;;;;;;;7.87;4.00;;;;;;;;;;698299;28;2022;-68
2024/02/12 01:38:35;;;;;;;6.95;3.92;;;;;;;;;;701563;28;880;-68
2024/02/12 01:38:56;;;;;;;6.73;3.90;;;;;;;;;;698503;28;1298;-68
2024/02/12 01:39:16;;;;;;;6.93;3.72;;;;;;;;;;700963;28;867;-67
2024/02/12 01:39:36;;;;;;;7.83;3.90;;;;;;;;;;701143;28;1343;-68
2024/02/12 01:39:57;;;;;;;8.13;3.90;;;;;;;;;;696370;28;1435;-68
2024/02/12 01:40:17;;;;;;;7.37;4.20;;;;;;;;;;699958;28;881;-68
2024/02/12 01:40:37;;;;;;;7.77;4.17;;;;;;;;;;699329;28;4351;-67
2024/02/12 01:40:58;;;;;;;7.40;4.10;;;;;;;;;;701866;28;1641;-68
2024/02/12 01:41:18;;;;;;;7.28;3.88;;;;;;;;;;699241;28;1304;-68
2024/02/12 01:41:39;;;;;;;7.40;4.10;;;;;;;;;;696816;28;1275;-68
2024/02/12 01:42:08;;;;;;;6.37;4.10;;;;;;;;;;697660;28;1533;-68
2024/02/12 01:42:28;;;;;;;8.57;4.00;;;;;;;;;;697263;28;917;-67
2024/02/12 01:42:50;;;;;;;7.93;3.95;;;;;;;;;;699541;28;952;-67
2024/02/12 01:43:24;;;;;;;8.75;4.07;;;;;;;;;;699133;28;1438;-67
2024/02/12 01:43:44;;;;;;;7.07;4.00;;;;;;;;;;700081;28;4684;-68
2024/02/12 01:44:05;;;;;;;6.87;4.00;;;;;;;;;;704557;27;1711;-68
2024/02/12 01:44:26;;;;;;;6.77;3.73;;;;;;;;;;704915;27;1256;-66
2024/02/12 01:45:00;;;;;;;7.07;3.85;;;;;;;;;;701092;28;947;-67
2024/02/12 01:45:26;;;;;;;6.88;3.80;;;;;;;;;;702140;28;1972;-68
2024/02/12 01:45:47;;;;;;;7.72;4.10;;;;;;;;;;702225;28;829;-68
2024/02/12 01:46:07;;;;;;;7.05;4.10;;;;;;;;;;700157;28;2249;-68
2024/02/12 01:46:28;;;;;;;6.83;4.07;;;;;;;;;;703727;27;4207;-66
2024/02/12 01:46:51;;;;;;;8.17;4.00;;;;;;;;;;704495;27;1351;-67
2024/02/12 01:47:11;;;;;;;7.70;3.72;;;;;;;;;;702778;28;1830;-68
2024/02/12 01:47:33;;;;;;;6.30;3.67;;;;;;;;;;704153;27;857;-67
2024/02/12 01:48:02;;;;;;;7.13;3.90;;;;;;;;;;704135;27;1249;-68
2024/02/12 01:48:22;;;;;;;6.50;3.75;;;;;;;;;;700739;27;911;-67
2024/02/12 01:48:45;;;;;;;7.00;4.20;;;;;;;;;;705986;27;967;-68
2024/02/12 01:49:07;;;;;;;6.60;4.20;;;;;;;;;;700653;28;1689;-68
2024/02/12 01:49:28;;;;;;;7.68;4.03;;;;;;;;;;701081;27;4389;-67
2024/02/12 01:49:51;;;;;;;9.07;4.33;;;;;;;;;;702303;27;888;-68
2024/02/12 01:50:12;;;;;;;7.28;4.20;;;;;;;;;;696927;28;1729;-68
2024/02/12 01:50:33;;;;;;;8.20;4.60;;;;;;;;;;699448;28;881;-67
2024/02/12 01:50:53;;;;;;;7.83;4.53;;;;;;;;;;698476;28;1238;-68
2024/02/12 01:51:14;;;;;;;7.50;4.50;;;;;;;;;;697529;28;1745;-68
2024/02/12 01:51:34;;;;;;;7.35;4.45;;;;;;;;;;698155;28;932;-68
2024/02/12 01:51:55;;;;;;;7.00;4.10;;;;;;;;;;699487;28;1205;-67
2024/02/12 01:52:15;;;;;;;7.37;4.47;;;;;;;;;;700926;28;1906;-66
2024/02/12 01:52:36;;;;;;;7.00;4.68;;;;;;;;;;703229;28;4296;-68
2024/02/12 01:52:56;;;;;;;6.72;4.75;;;;;;;;;;704269;27;1599;-67
2024/02/12 01:53:17;;;;;;;7.28;4.40;;;;;;;;;;703860;27;714;-68
2024/02/12 01:53:38;;;;;;;7.60;4.13;;;;;;;;;;704918;28;1315;-67
2024/02/12 01:53:59;;;;;;;7.13;3.92;;;;;;;;;;702319;27;1834;-67
2024/02/12 01:54:19;;;;;;;10.05;4.75;;;;;;;;;;701975;28;1214;-67
2024/02/12 01:54:40;;;;;;;10.20;4.88;;;;;;;;;;702220;28;924;-68
2024/02/12 01:55:02;;;;;;;6.88;4.32;;;;;;;;;;700193;28;1505;-67
2024/02/12 01:55:29;;;;;;;8.75;4.80;;;;;;;;;;700205;28;4692;-68
2024/02/12 01:55:50;;;;;;;9.05;4.85;;;;;;;;;;699279;28;1241;-67
2024/02/12 01:56:10;;;;;;;9.20;4.82;;;;;;;;;;699434;28;1648;-68
2024/02/12 01:56:31;;;;;;;8.70;5.45;;;;;;;;;;698913;28;1284;-68
2024/02/12 01:56:51;;;;;;;8.97;5.57;;;;;;;;;;699031;28;1110;-68
2024/02/12 01:57:11;;;;;;;9.55;5.38;;;;;;;;;;699071;28;1742;-67
2024/02/12 01:57:33;;;;;;;10.47;5.83;;;;;;;;;;696331;28;1274;-68
2024/02/12 01:57:54;;;;;;;9.88;5.60;;;;;;;;;;698853;28;1010;-68
2024/02/12 01:58:16;;;;;;;8.80;5.53;;;;;;;;;;696293;28;2285;-67
2024/02/12 01:58:40;;;;;;;10.02;5.88;;;;;;;;;;699996;28;4291;-67
2024/02/12 01:59:02;;;;;;;11.70;6.10;;;;;;;;;;696623;28;1920;-68
2024/02/12 01:59:23;;;;;;;10.15;6.00;;;;;;;;;;701506;28;967;-68
2024/02/12 01:59:43;;;;;;;10.05;6.03;;;;;;;;;;702851;28;912;-67
2024/02/12 02:00:09;;;;;;;9.63;6.00;;;;;;;;;;700758;28;896;-67
2024/02/12 02:00:32;;;;;;;9.32;5.53;;;;;;;;;;704680;27;1268;-67
2024/02/12 02:00:59;;;;;;;8.82;6.05;;;;;;;;;;703542;27;1600;-67
2024/02/12 02:01:19;;;;;;;10.80;6.13;;;;;;;;;;701548;28;1322;-68
2024/02/12 02:01:40;;;;;;;11.32;6.10;;;;;;;;;;699484;28;4455;-67
2024/02/12 02:02:01;;;;;;;10.95;6.30;;;;;;;;;;700613;28;1096;-68
2024/02/12 02:02:21;;;;;;;10.45;6.25;;;;;;;;;;698656;28;1190;-68
2024/02/12 02:02:45;;;;;;;9.95;5.85;;;;;;;;;;700372;28;1841;-68
2024/02/12 02:03:06;;;;;;;10.43;5.60;;;;;;;;;;699194;28;1789;-68
2024/02/12 02:03:27;;;;;;;10.83;6.20;;;;;;;;;;703039;28;798;-68
2024/02/12 02:03:48;;;;;;;9.10;6.05;;;;;;;;;;697761;28;1103;-67
2024/02/12 02:04:08;;;;;;;9.43;5.93;;;;;;;;;;697047;28;1752;-67
2024/02/12 02:04:29;;;;;;;9.98;5.97;;;;;;;;;;696389;28;4281;-68
2024/02/12 02:04:49;;;;;;;10.57;5.85;;;;;;;;;;697725;28;1000;-67
2024/02/12 02:05:13;;;;;;;10.47;5.87;;;;;;;;;;697440;28;1509;-66
2024/02/12 02:05:34;;;;;;;9.80;6.07;;;;;;;;;;695094;28;1938;-68
2024/02/12 02:05:56;;;;;;;9.82;6.20;;;;;;;;;;697524;28;1706;-68
2024/02/12 02:06:16;;;;;;;10.32;6.10;;;;;;;;;;693974;28;1810;-68
2024/02/12 02:06:37;;;;;;;11.00;6.00;;;;;;;;;;695907;28;893;-66
2024/02/12 02:06:58;;;;;;;11.60;6.68;;;;;;;;;;696334;28;1592;-68
2024/02/12 02:07:21;;;;;;;12.13;6.80;;;;;;;;;;697441;28;1131;-67
2024/02/12 02:07:42;;;;;;;10.93;6.57;;;;;;;;;;698793;28;4230;-66
2024/02/12 02:08:03;;;;;;;11.23;6.97;;;;;;;;;;701587;28;1450;-68
2024/02/12 02:08:36;;;;;;;11.77;6.70;;;;;;;;;;705531;27;920;-67
2024/02/12 02:08:58;;;;;;;11.25;6.60;;;;;;;;;;701864;28;1376;-68
2024/02/12 02:09:18;;;;;;;9.68;6.25;;;;;;;;;;700845;28;992;-67
2024/02/12 02:09:38;;;;;;;10.37;6.17;;;;;;;;;;701678;28;908;-67
2024/02/12 02:09:58;;;;;;;11.40;5.97;;;;;;;;;;700759;28;1864;-68
2024/02/12 02:10:19;;;;;;;11.77;6.40;;;;;;;;;;701231;28;1335;-66
2024/02/12 02:10:40;;;;;;;11.73;7.07;;;;;;;;;;703319;27;4378;-67
2024/02/12 02:11:00;;;;;;;11.30;6.97;;;;;;;;;;703839;27;2648;-67
2024/02/12 02:11:20;;;;;;;9.70;6.17;;;;;;;;;;701972;28;896;-67
2024/02/12 02:11:41;;;;;;;11.27;6.63;;;;;;;;;;698864;28;797;-68
2024/02/12 02:12:02;;;;;;;12.23;7.20;;;;;;;;;;696851;28;1725;-66